ドーハ の空港の天気 - METARとTAF

ドーハ国際空港 ( OTBD / DOH ) - カタール ドーハ
飛行場実況気象(Metar)
観測時間01/17 09:00 AST (01/17 06:00 UTC)
風向・風速北西 4m/s
視程10km以上
天気現象
なし
気温20℃
湿度60%
気圧1021hPa
METAROTBD 170600Z 32008KT 280V350 CAVOK 20/12 Q1021 NOSIG
過去の天気等 Google飛行場航空写真 Wunderground天気予報

過去48時間のMETAR

飛行場予報(TAF)
発表時間: 1/17 08:00 AST (1/17 05:00 UTC)
予報対象時間: 17日9時 AST ~ 18日15時 AST
風向・風速北北西 6m/s
視程10km以上
なし
TAF OTBD 170500Z 1706/1812 33012KT CAVOK